Time;durP1;ratioP1;P1;durP2;ratioP2;P2;SDS_P1;SDS_P2;PMS_P1;PMS_P2;Temp;Humidity;BMP_temperature;BMP_pressure;BME280_temperature;BME280_humidity;BME280_pressure;Samples;Min_cycle;Max_cycle;Signal;HPM_P1;HPM_P2
2021/06/12 00:01:44;;;;;;;26.63;22.33;;;18.70;99.90;;;;;;5024423;28;20037;-65
2021/06/12 00:04:30;;;;;;;25.05;22.38;;;18.60;99.90;;;;;;5050284;28;20152;-65
2021/06/12 00:07:15;;;;;;;24.45;21.73;;;18.50;99.90;;;;;;5047864;28;20150;-65
2021/06/12 00:10:08;;;;;;;25.48;22.65;;;18.40;99.90;;;;;;5048212;28;20549;-65
2021/06/12 00:12:54;;;;;;;25.35;22.65;;;18.50;99.90;;;;;;5049112;28;20053;-65
2021/06/12 00:15:26;;;;;;;26.27;23.52;;;18.50;99.90;;;;;;5024479;28;20045;-65
2021/06/12 00:18:12;;;;;;;27.75;24.55;;;18.50;99.90;;;;;;5023644;28;20050;-65
2021/06/12 00:20:51;;;;;;;27.17;22.20;;;18.50;99.90;;;;;;5024538;28;20041;-65
2021/06/12 00:23:35;;;;;;;28.33;22.23;;;18.50;99.90;;;;;;5024353;28;20053;-65
2021/06/12 00:26:01;;;;;;;27.25;24.33;;;18.50;99.90;;;;;;5023630;28;20061;-65
2021/06/12 00:28:33;;;;;;;26.92;23.90;;;18.50;99.90;;;;;;5023321;28;20060;-65
2021/06/12 00:31:00;;;;;;;26.17;22.67;;;18.50;99.90;;;;;;5023167;28;20045;-65
2021/06/12 00:33:26;;;;;;;29.65;24.63;;;18.50;99.90;;;;;;5052496;28;20135;-65
2021/06/12 00:35:53;;;;;;;27.25;22.92;;;18.50;99.90;;;;;;5023001;28;20128;-65
2021/06/12 00:38:39;;;;;;;24.77;21.40;;;18.50;99.90;;;;;;5023806;28;20135;-65
2021/06/12 00:41:08;;;;;;;27.05;23.17;;;18.50;99.90;;;;;;5022824;28;20077;-65
2021/06/12 00:43:36;;;;;;;28.40;22.33;;;18.50;99.90;;;;;;5023623;28;20116;-65
2021/06/12 00:46:03;;;;;;;25.65;21.73;;;18.50;99.90;;;;;;5024027;28;20503;-65
2021/06/12 00:48:28;;;;;;;28.17;23.10;;;18.50;99.90;;;;;;5023411;28;20091;-65
2021/06/12 00:50:58;;;;;;;26.30;22.65;;;18.50;99.90;;;;;;5022078;28;20052;-65
2021/06/12 00:53:42;;;;;;;25.40;22.02;;;18.50;99.90;;;;;;5023773;28;20041;-65
2021/06/12 00:56:17;;;;;;;24.75;21.48;;;18.50;99.90;;;;;;5023055;28;20140;-65
2021/06/12 00:58:47;;;;;;;24.50;21.90;;;18.50;99.90;;;;;;5023259;28;20041;-66
2021/06/12 01:01:16;;;;;;;24.95;22.25;;;18.50;99.90;;;;;;5022858;28;20037;-65
2021/06/12 01:03:45;;;;;;;21.05;18.83;;;18.40;99.90;;;;;;5023837;28;20041;-65
2021/06/12 01:06:23;;;;;;;27.08;20.58;;;18.50;99.90;;;;;;5023637;28;20148;-65
2021/06/12 01:08:59;;;;;;;23.20;20.63;;;18.50;99.90;;;;;;5023300;28;20447;-65
2021/06/12 01:12:17;;;;;;;27.98;21.50;;;18.50;99.90;;;;;;5022069;28;20136;-65
2021/06/12 01:15:06;;;;;;;24.50;21.85;;;18.50;99.90;;;;;;5022265;28;20049;-65
2021/06/12 01:18:06;;;;;;;28.98;23.42;;;18.50;99.90;;;;;;5022240;28;20075;-65
2021/06/12 01:21:05;;;;;;;25.58;22.05;;;18.50;99.90;;;;;;5022009;28;20057;-65
2021/06/12 01:24:10;;;;;;;23.40;19.95;;;18.50;99.90;;;;;;5021164;28;20080;-65
2021/06/12 01:27:22;;;;;;;27.20;21.98;;;18.50;99.90;;;;;;5021231;28;20094;-65
2021/06/12 01:30:23;;;;;;;23.80;20.65;;;18.50;99.90;;;;;;5021088;28;20045;-65
2021/06/12 01:33:12;;;;;;;25.65;21.50;;;18.50;99.90;;;;;;5021799;28;20063;-65
2021/06/12 01:36:03;;;;;;;34.28;21.70;;;18.50;99.90;;;;;;5047003;28;20053;-65
2021/06/12 01:38:52;;;;;;;27.20;22.48;;;18.50;99.90;;;;;;5022775;28;20146;-65
2021/06/12 01:41:40;;;;;;;27.80;23.38;;;18.50;99.90;;;;;;5021001;28;20069;-65
2021/06/12 01:44:29;;;;;;;26.17;21.67;;;18.50;99.90;;;;;;5020792;28;20038;-65
2021/06/12 01:47:16;;;;;;;26.77;21.98;;;18.50;99.90;;;;;;5021689;28;20057;-65
2021/06/12 01:50:03;;;;;;;25.17;21.70;;;18.50;99.90;;;;;;5021446;28;20128;-65
2021/06/12 01:52:41;;;;;;;32.67;24.30;;;18.50;99.90;;;;;;5022088;28;20071;-65
2021/06/12 01:55:30;;;;;;;30.60;23.75;;;18.50;99.90;;;;;;5021250;28;20045;-65
2021/06/12 01:58:21;;;;;;;28.45;23.83;;;18.50;99.90;;;;;;5046394;28;20111;-65
2021/06/12 02:01:10;;;;;;;27.75;22.48;;;18.50;99.90;;;;;;5020942;28;20045;-65
2021/06/12 02:03:57;;;;;;;30.00;24.13;;;18.40;99.90;;;;;;5022110;28;20049;-65
2021/06/12 02:06:44;;;;;;;33.58;25.75;;;18.50;99.90;;;;;;5022955;28;20126;-65
2021/06/12 02:09:32;;;;;;;29.65;24.17;;;18.50;99.90;;;;;;5051365;28;20056;-65
2021/06/12 02:12:18;;;;;;;33.53;26.98;;;18.40;99.90;;;;;;5026121;28;20488;-65
2021/06/12 02:15:09;;;;;;;30.35;24.60;;;18.40;99.90;;;;;;5011672;28;20072;-65
2021/06/12 02:17:59;;;;;;;30.40;26.30;;;18.40;99.90;;;;;;5024160;28;20734;-65
2021/06/12 02:20:45;;;;;;;31.67;28.08;;;18.40;99.90;;;;;;5025385;28;20056;-65
2021/06/12 02:23:31;;;;;;;29.60;24.90;;;18.40;99.90;;;;;;5024471;28;20049;-65
2021/06/12 02:26:19;;;;;;;32.90;28.20;;;18.40;99.90;;;;;;5025109;28;20054;-65
2021/06/12 02:29:07;;;;;;;33.22;27.60;;;18.40;99.90;;;;;;5036919;28;20478;-65
2021/06/12 02:32:13;;;;;;;36.13;28.63;;;18.40;99.90;;;;;;5026906;28;20081;-65
2021/06/12 02:34:59;;;;;;;41.20;31.77;;;18.40;99.90;;;;;;5023943;28;20120;-65
2021/06/12 02:37:46;;;;;;;34.42;29.92;;;18.40;99.90;;;;;;5024621;28;20060;-65
2021/06/12 02:40:32;;;;;;;39.67;32.65;;;18.40;99.90;;;;;;5025961;28;20076;-65
2021/06/12 02:43:18;;;;;;;;;;;18.40;99.90;;;;;;5026005;28;20045;-65
2021/06/12 02:46:08;;;;;;;35.22;29.52;;;18.40;99.90;;;;;;5024791;28;20276;-65
2021/06/12 02:49:03;;;;;;;40.00;32.28;;;18.40;99.90;;;;;;5024973;28;20070;-65
2021/06/12 02:51:56;;;;;;;39.58;31.15;;;18.40;99.90;;;;;;5025832;28;20103;-65
2021/06/12 02:54:44;;;;;;;40.15;31.88;;;18.40;99.90;;;;;;5023529;28;20045;-65
2021/06/12 02:57:31;;;;;;;42.47;33.03;;;18.40;99.90;;;;;;5024117;28;20037;-65
2021/06/12 03:00:18;;;;;;;40.97;31.73;;;18.40;99.90;;;;;;5024132;28;20061;-65
2021/06/12 03:03:05;;;;;;;46.78;35.28;;;18.40;99.90;;;;;;5050408;28;20072;-65
2021/06/12 03:05:59;;;;;;;43.55;34.70;;;18.30;99.90;;;;;;5024397;28;20049;-65
2021/06/12 03:08:48;;;;;;;43.88;34.22;;;18.40;99.90;;;;;;5050382;28;20056;-65
2021/06/12 03:11:23;;;;;;;45.97;35.25;;;18.30;99.90;;;;;;5026590;28;20499;-65
2021/06/12 03:13:53;;;;;;;42.17;36.22;;;18.40;99.90;;;;;;5026737;28;20038;-65
2021/06/12 03:16:42;;;;;;;47.45;37.10;;;18.30;99.90;;;;;;5023347;28;20044;-65
2021/06/12 03:19:29;;;;;;;41.83;35.90;;;18.30;99.90;;;;;;5022898;28;20408;-65
2021/06/12 03:22:15;;;;;;;43.88;35.28;;;18.20;99.90;;;;;;5023778;28;20452;-65
2021/06/12 03:25:04;;;;;;;47.38;39.05;;;18.30;99.90;;;;;;5023780;28;20120;-65
2021/06/12 03:27:50;;;;;;;47.63;38.67;;;18.30;99.90;;;;;;5023122;28;20049;-65
2021/06/12 03:30:17;;;;;;;51.50;40.67;;;18.20;99.90;;;;;;5022392;28;20049;-65
2021/06/12 03:32:43;;;;;;;44.10;36.85;;;18.20;99.90;;;;;;5024839;28;20042;-65
2021/06/12 03:35:10;;;;;;;52.03;40.38;;;18.30;99.90;;;;;;5024898;28;20107;-65
2021/06/12 03:37:38;;;;;;;53.30;39.47;;;18.20;99.90;;;;;;5024486;28;20049;-65
2021/06/12 03:40:05;;;;;;;48.75;40.15;;;18.20;99.90;;;;;;5024419;28;20047;-65
2021/06/12 03:42:53;;;;;;;49.35;41.13;;;18.20;99.90;;;;;;5024006;28;20148;-65
2021/06/12 03:45:21;;;;;;;46.22;38.90;;;18.20;99.90;;;;;;5025091;28;20033;-65
2021/06/12 03:47:55;;;;;;;46.08;39.65;;;18.20;99.90;;;;;;5023266;28;20044;-65
2021/06/12 03:50:42;;;;;;;43.45;38.13;;;18.20;99.90;;;;;;5023481;28;20692;-65
2021/06/12 03:53:43;;;;;;;47.33;40.08;;;18.20;99.90;;;;;;5023846;28;20049;-65
2021/06/12 03:56:35;;;;;;;43.60;38.72;;;18.20;99.90;;;;;;5022899;28;20041;-65
2021/06/12 03:59:22;;;;;;;42.13;36.03;;;18.20;99.90;;;;;;5023734;28;20045;-65
2021/06/12 04:02:09;;;;;;;46.20;37.53;;;18.20;99.90;;;;;;5049460;28;20476;-65
2021/06/12 04:04:57;;;;;;;44.00;38.28;;;18.20;99.90;;;;;;5023042;28;20045;-65
2021/06/12 04:07:43;;;;;;;42.15;35.65;;;18.30;99.90;;;;;;5022338;28;20048;-65
2021/06/12 04:10:29;;;;;;;40.55;33.60;;;18.30;99.90;;;;;;5022786;28;20497;-65
2021/06/12 04:13:03;;;;;;;37.70;32.05;;;18.30;99.90;;;;;;5022785;28;20052;-65
2021/06/12 04:15:29;;;;;;;39.35;31.35;;;18.30;99.90;;;;;;5024690;28;20041;-65
2021/06/12 04:18:15;;;;;;;35.42;30.65;;;18.30;99.90;;;;;;5050076;28;20046;-65
2021/06/12 04:21:01;;;;;;;;;;;18.30;99.90;;;;;;5048873;28;20052;-65
2021/06/12 04:23:47;;;;;;;38.10;30.05;;;18.20;99.90;;;;;;5023991;28;20354;-65
2021/06/12 04:26:33;;;;;;;31.83;27.77;;;18.30;99.90;;;;;;5021642;28;20455;-65
2021/06/12 04:29:19;;;;;;;;;;;18.30;99.90;;;;;;5023639;28;20052;-65
2021/06/12 04:32:05;;;;;;;34.42;26.48;;;18.30;99.90;;;;;;5022525;28;19935;-65
2021/06/12 04:34:51;;;;;;;31.55;25.13;;;18.40;99.90;;;;;;5047966;28;20053;-65
2021/06/12 04:37:36;;;;;;;31.70;25.70;;;18.40;99.90;;;;;;5032225;28;20056;-65
2021/06/12 04:40:22;;;;;;;29.75;24.10;;;18.40;99.90;;;;;;5022207;28;22436;-65
2021/06/12 04:43:11;;;;;;;25.58;22.42;;;18.40;99.90;;;;;;5023820;28;20053;-65
2021/06/12 04:45:38;;;;;;;25.10;22.27;;;18.50;99.90;;;;;;5022773;28;20399;-65
2021/06/12 04:48:16;;;;;;;24.67;20.52;;;18.50;99.90;;;;;;5023123;28;21142;-65
2021/06/12 04:50:42;;;;;;;24.67;20.85;;;18.60;99.90;;;;;;5022277;28;20050;-65
2021/06/12 04:53:10;;;;;;;29.40;20.13;;;18.60;99.90;;;;;;5021880;28;20038;-65
2021/06/12 04:55:45;;;;;;;26.25;20.80;;;18.70;99.90;;;;;;5023246;28;20073;-65
2021/06/12 04:58:14;;;;;;;27.45;20.15;;;18.70;99.90;;;;;;5020334;28;20400;-65
2021/06/12 05:00:43;;;;;;;24.05;18.67;;;18.70;99.90;;;;;;5022962;28;20122;-65
2021/06/12 05:03:13;;;;;;;22.58;18.00;;;18.70;99.90;;;;;;5021675;28;20377;-65
2021/06/12 05:05:43;;;;;;;23.33;17.83;;;18.70;99.90;;;;;;5023737;28;20107;-65
2021/06/12 05:08:16;;;;;;;25.80;18.92;;;18.60;99.90;;;;;;5022107;28;20037;-65
2021/06/12 05:10:55;;;;;;;21.88;17.13;;;18.60;99.90;;;;;;5023627;28;20045;-65
2021/06/12 05:13:21;;;;;;;22.65;17.25;;;18.60;99.90;;;;;;5022380;28;20051;-65
2021/06/12 05:15:48;;;;;;;19.73;16.25;;;18.60;99.90;;;;;;5023835;28;20130;-65
2021/06/12 05:18:16;;;;;;;22.40;14.80;;;18.70;99.90;;;;;;5022585;28;20045;-65
2021/06/12 05:20:42;;;;;;;20.73;14.32;;;18.70;99.90;;;;;;5023376;28;20045;-65
2021/06/12 05:23:09;;;;;;;16.25;12.88;;;18.80;99.90;;;;;;5021418;28;20081;-65
2021/06/12 05:25:42;;;;;;;20.20;12.25;;;18.80;99.90;;;;;;5022359;28;20049;-65
2021/06/12 05:28:08;;;;;;;20.13;12.70;;;18.80;99.90;;;;;;5021750;28;20029;-65
2021/06/12 05:30:40;;;;;;;16.77;11.18;;;18.90;99.90;;;;;;5022431;28;20075;-65
2021/06/12 05:33:09;;;;;;;18.88;10.63;;;18.90;99.90;;;;;;5022165;28;20037;-65
2021/06/12 05:35:36;;;;;;;18.05;11.57;;;18.90;99.90;;;;;;5022545;28;20131;-65
2021/06/12 05:38:02;;;;;;;15.93;11.27;;;18.90;99.90;;;;;;5021165;28;20084;-65
2021/06/12 05:40:31;;;;;;;13.05;10.77;;;19.00;99.90;;;;;;5021701;28;20407;-65
2021/06/12 05:42:58;;;;;;;16.98;10.30;;;19.10;99.90;;;;;;5021965;28;20046;-65
2021/06/12 05:45:24;;;;;;;17.05;10.50;;;19.20;99.90;;;;;;5021530;28;20099;-65
2021/06/12 05:47:50;;;;;;;13.57;10.15;;;19.20;99.90;;;;;;5022452;28;20053;-65
2021/06/12 05:50:16;;;;;;;33.33;11.10;;;19.20;99.90;;;;;;5021321;28;20037;-65
2021/06/12 05:52:43;;;;;;;19.45;9.02;;;19.20;99.90;;;;;;5026187;28;20050;-65
2021/06/12 05:55:15;;;;;;;16.33;8.88;;;19.30;99.90;;;;;;5025358;28;20037;-65
2021/06/12 05:57:42;;;;;;;17.20;8.55;;;19.30;99.90;;;;;;5026206;28;20164;-65
2021/06/12 06:00:18;;;;;;;13.90;8.00;;;19.20;99.90;;;;;;5026165;28;20108;-65
2021/06/12 06:03:04;;;;;;;14.65;7.75;;;19.30;99.90;;;;;;5024246;28;20050;-65
2021/06/12 06:05:30;;;;;;;10.95;7.10;;;19.30;99.90;;;;;;5026683;28;20072;-65
2021/06/12 06:07:56;;;;;;;13.38;6.88;;;19.30;99.90;;;;;;5025767;28;20456;-65
2021/06/12 06:10:23;;;;;;;10.35;7.32;;;19.30;99.90;;;;;;5026532;28;20048;-65
2021/06/12 06:12:52;;;;;;;14.85;7.00;;;19.30;99.90;;;;;;5026577;28;20045;-65
2021/06/12 06:15:18;;;;;;;13.20;6.47;;;19.40;99.90;;;;;;5025723;28;20048;-65
2021/06/12 06:17:45;;;;;;;12.48;7.18;;;19.40;99.90;;;;;;5025287;28;20037;-65
2021/06/12 06:20:14;;;;;;;13.27;6.53;;;19.40;99.90;;;;;;5026254;28;20057;-65
2021/06/12 06:22:48;;;;;;;10.57;6.88;;;19.50;99.90;;;;;;5026934;28;20041;-65
2021/06/12 06:25:16;;;;;;;15.13;6.88;;;19.50;99.60;;;;;;5026461;28;20056;-65
2021/06/12 06:27:50;;;;;;;13.90;6.25;;;19.50;99.80;;;;;;5026035;28;20451;-65
2021/06/12 06:30:24;;;;;;;12.80;6.10;;;19.50;99.90;;;;;;5026352;28;20104;-65
2021/06/12 06:32:50;;;;;;;9.40;5.95;;;19.70;99.90;;;;;;5026640;28;20613;-65
2021/06/12 06:35:23;;;;;;;7.43;5.35;;;19.90;99.60;;;;;;5026550;28;20056;-65
2021/06/12 06:37:54;;;;;;;7.60;5.53;;;20.00;99.20;;;;;;5022978;28;20041;-65
2021/06/12 06:40:26;;;;;;;9.90;4.70;;;20.00;98.40;;;;;;5021854;28;20399;-65
2021/06/12 06:42:52;;;;;;;9.27;4.53;;;20.00;97.70;;;;;;5023192;28;20051;-65
2021/06/12 06:45:19;;;;;;;10.30;3.97;;;20.10;97.60;;;;;;5025645;28;20045;-65
2021/06/12 06:47:50;;;;;;;8.70;3.53;;;20.10;97.30;;;;;;5021833;28;20094;-65
2021/06/12 06:50:20;;;;;;;7.80;3.58;;;20.20;96.80;;;;;;5022942;28;20057;-65
2021/06/12 06:53:06;;;;;;;8.45;3.13;;;20.30;96.80;;;;;;5041966;28;20045;-65
2021/06/12 06:55:32;;;;;;;6.45;3.20;;;20.40;96.00;;;;;;5026711;28;20095;-65
2021/06/12 06:57:58;;;;;;;11.75;4.60;;;20.50;96.10;;;;;;5025095;28;20037;-65
2021/06/12 07:00:26;;;;;;;8.27;3.47;;;20.60;96.10;;;;;;5026327;28;20052;-65
2021/06/12 07:02:53;;;;;;;7.80;3.08;;;20.70;96.20;;;;;;5026426;28;20519;-65
2021/06/12 07:05:20;;;;;;;9.65;3.35;;;20.80;96.00;;;;;;5026599;28;20041;-65
2021/06/12 07:07:46;;;;;;;8.93;2.97;;;20.80;95.90;;;;;;5022143;28;20046;-65
2021/06/12 07:10:13;;;;;;;14.75;3.30;;;21.00;95.80;;;;;;5024890;28;20069;-65
2021/06/12 07:12:39;;;;;;;7.63;2.80;;;21.10;95.60;;;;;;5026168;28;20034;-65
2021/06/12 07:15:11;;;;;;;4.07;2.63;;;21.20;94.80;;;;;;5027075;28;20045;-65
2021/06/12 07:17:38;;;;;;;7.47;2.80;;;21.30;94.60;;;;;;5027425;28;20078;-65
2021/06/12 07:20:24;;;;;;;6.97;2.70;;;21.30;94.00;;;;;;5052272;28;20056;-65
2021/06/12 07:22:52;;;;;;;8.18;3.45;;;21.30;93.80;;;;;;5028209;28;20044;-65
2021/06/12 07:25:20;;;;;;;7.70;2.70;;;21.30;93.10;;;;;;5029647;28;20095;-65
2021/06/12 07:27:49;;;;;;;7.28;2.53;;;21.20;92.80;;;;;;5027115;28;20446;-65
2021/06/12 07:30:18;;;;;;;6.43;2.92;;;21.10;92.40;;;;;;5022574;28;20132;-65
2021/06/12 07:32:44;;;;;;;9.20;3.05;;;21.10;92.80;;;;;;5024423;28;20480;-65
2021/06/12 07:35:10;;;;;;;8.52;3.13;;;21.10;92.80;;;;;;5023773;28;20048;-65
2021/06/12 07:37:36;;;;;;;7.10;2.00;;;21.10;93.00;;;;;;5023554;28;20061;-65
2021/06/12 07:40:04;;;;;;;7.47;2.17;;;21.10;91.90;;;;;;5024687;28;20376;-65
2021/06/12 07:42:30;;;;;;;8.68;2.58;;;21.10;91.70;;;;;;5025508;28;20126;-65
2021/06/12 07:44:56;;;;;;;10.65;2.13;;;21.00;91.40;;;;;;5024074;28;20057;-65
2021/06/12 07:47:22;;;;;;;5.97;2.10;;;21.00;91.80;;;;;;5023272;28;20051;-65
2021/06/12 07:49:48;;;;;;;6.75;2.30;;;21.10;92.40;;;;;;5024385;28;20044;-65
2021/06/12 07:52:14;;;;;;;6.47;2.85;;;21.20;92.40;;;;;;5021853;28;20050;-65
2021/06/12 07:54:40;;;;;;;5.15;2.33;;;21.40;92.60;;;;;;5024840;28;20108;-65
2021/06/12 07:57:06;;;;;;;6.60;2.53;;;21.60;91.80;;;;;;5021787;28;20138;-65
2021/06/12 07:59:32;;;;;;;9.13;2.67;;;21.80;91.70;;;;;;5024604;28;20406;-65
2021/06/12 08:01:58;;;;;;;8.30;2.72;;;21.90;91.60;;;;;;5024115;28;20116;-65
2021/06/12 08:04:24;;;;;;;5.03;2.55;;;22.00;90.90;;;;;;5023383;28;20459;-65
2021/06/12 08:06:50;;;;;;;5.53;2.03;;;21.90;90.70;;;;;;5023178;28;20057;-65
2021/06/12 08:09:15;;;;;;;6.40;2.40;;;21.90;88.00;;;;;;5024224;28;20045;-65
2021/06/12 08:11:41;;;;;;;5.03;1.98;;;21.90;90.20;;;;;;5022712;28;20223;-65
2021/06/12 08:14:08;;;;;;;7.97;1.90;;;21.90;88.60;;;;;;5024118;28;20037;-65
2021/06/12 08:16:34;;;;;;;6.80;2.58;;;22.10;89.10;;;;;;5023241;28;20913;-65
2021/06/12 08:18:59;;;;;;;10.60;2.40;;;22.30;87.30;;;;;;5021921;28;21331;-65
2021/06/12 08:21:25;;;;;;;8.32;2.70;;;22.30;88.70;;;;;;5022763;28;20495;-65
2021/06/12 08:23:51;;;;;;;6.57;2.55;;;22.30;87.70;;;;;;5022734;28;20037;-65
2021/06/12 08:26:17;;;;;;;7.63;1.90;;;22.00;85.60;;;;;;5023300;28;20048;-65
2021/06/12 08:28:43;;;;;;;4.25;1.90;;;22.00;87.80;;;;;;5023563;28;20466;-65
2021/06/12 08:31:08;;;;;;;5.60;1.98;;;21.90;88.30;;;;;;5023341;28;20459;-65
2021/06/12 08:33:34;;;;;;;4.40;1.73;;;21.80;88.30;;;;;;5022881;28;20061;-65
2021/06/12 08:36:00;;;;;;;7.50;2.40;;;21.60;87.50;;;;;;5023452;28;20472;-65
2021/06/12 08:38:26;;;;;;;7.75;2.40;;;21.40;88.20;;;;;;5022556;28;20534;-65
2021/06/12 08:40:52;;;;;;;6.35;2.22;;;21.40;86.80;;;;;;5022910;28;20037;-65
2021/06/12 08:43:28;;;;;;;5.20;2.08;;;21.40;89.20;;;;;;5021328;28;20401;-65
2021/06/12 08:45:55;;;;;;;7.70;2.45;;;21.60;87.90;;;;;;5022520;28;20034;-65
2021/06/12 08:48:22;;;;;;;5.00;1.85;;;21.70;87.50;;;;;;5022857;28;20041;-65
2021/06/12 08:50:49;;;;;;;6.20;2.20;;;22.00;88.20;;;;;;5022592;28;20160;-65
2021/06/12 08:53:15;;;;;;;7.70;2.65;;;22.00;85.40;;;;;;5037873;28;20045;-65
2021/06/12 08:55:42;;;;;;;7.78;2.42;;;22.00;85.80;;;;;;5024555;28;20041;-65
2021/06/12 08:58:09;;;;;;;6.05;2.05;;;21.90;84.80;;;;;;5021098;28;20041;-65
2021/06/12 09:00:35;;;;;;;8.00;2.15;;;21.70;84.20;;;;;;5022249;28;20042;-65
2021/06/12 09:03:14;;;;;;;7.60;2.05;;;21.70;84.90;;;;;;5022719;28;20037;-65
2021/06/12 09:05:49;;;;;;;6.35;1.80;;;21.90;84.10;;;;;;5022621;28;20186;-65
2021/06/12 09:08:17;;;;;;;8.60;2.33;;;21.90;83.30;;;;;;5021846;28;20627;-65
2021/06/12 09:10:49;;;;;;;7.30;2.38;;;21.90;83.40;;;;;;5020939;28;20044;-65
2021/06/12 09:13:15;;;;;;;7.57;2.33;;;22.10;84.60;;;;;;5020824;28;20033;-65
2021/06/12 09:15:49;;;;;;;6.07;2.03;;;22.10;83.90;;;;;;5023019;28;20107;-65
2021/06/12 09:18:36;;;;;;;8.23;1.98;;;21.90;81.80;;;;;;5022114;28;20088;-65
2021/06/12 09:21:02;;;;;;;5.28;1.50;;;22.00;82.70;;;;;;5021502;28;20038;-65
2021/06/12 09:23:37;;;;;;;6.28;1.55;;;22.00;81.00;;;;;;5021952;28;20037;-65
2021/06/12 09:26:06;;;;;;;8.70;2.15;;;22.20;81.60;;;;;;5021956;28;20041;-65
2021/06/12 09:28:47;;;;;;;6.30;1.42;;;22.20;80.00;;;;;;5021098;28;20124;-65
2021/06/12 09:31:21;;;;;;;5.63;1.88;;;22.10;80.40;;;;;;5021986;28;20128;-65
2021/06/12 09:33:47;;;;;;;6.88;2.05;;;22.10;81.10;;;;;;5022324;28;20124;-65
2021/06/12 09:36:14;;;;;;;6.90;2.05;;;22.20;81.60;;;;;;5050823;28;20520;-65
2021/06/12 09:38:41;;;;;;;6.97;1.80;;;22.50;81.20;;;;;;5022201;28;20052;-65
2021/06/12 09:41:29;;;;;;;16.27;2.63;;;22.80;80.70;;;;;;5022795;28;20080;-65
2021/06/12 09:43:56;;;;;;;7.95;2.15;;;22.80;78.70;;;;;;5022603;28;20056;-65
2021/06/12 09:46:32;;;;;;;8.02;2.22;;;22.60;79.60;;;;;;5022465;28;20053;-65
2021/06/12 09:48:58;;;;;;;7.85;1.67;;;22.80;82.10;;;;;;5022332;28;20041;-65
2021/06/12 09:51:24;;;;;;;6.35;1.88;;;22.90;82.60;;;;;;5020541;28;20490;-65
2021/06/12 09:53:52;;;;;;;6.65;1.70;;;23.00;80.30;;;;;;5021478;28;20121;-65
2021/06/12 09:56:18;;;;;;;9.65;2.15;;;22.70;77.00;;;;;;5021421;28;20131;-65
2021/06/12 09:58:44;;;;;;;5.18;1.65;;;22.60;78.10;;;;;;5021701;28;20033;-65
2021/06/12 10:01:12;;;;;;;8.68;1.80;;;22.70;79.70;;;;;;5020235;28;20049;-65
2021/06/12 10:03:38;;;;;;;6.55;2.00;;;22.90;79.70;;;;;;5022362;28;20175;-65
2021/06/12 10:06:31;;;;;;;4.97;1.42;;;22.90;79.10;;;;;;5020894;28;20038;-65
2021/06/12 10:09:00;;;;;;;7.47;1.70;;;22.90;77.60;;;;;;5018597;28;20046;-65
2021/06/12 10:11:27;;;;;;;6.43;1.48;;;23.10;77.90;;;;;;5021327;28;20044;-65
2021/06/12 10:13:53;;;;;;;4.93;1.40;;;23.30;76.70;;;;;;5022123;28;20041;-65
2021/06/12 10:16:20;;;;;;;5.65;1.30;;;23.60;73.10;;;;;;5020752;28;20068;-65
2021/06/12 10:18:50;;;;;;;7.00;1.48;;;23.60;69.90;;;;;;5021741;28;20037;-65
2021/06/12 10:21:16;;;;;;;8.73;1.23;;;23.60;70.90;;;;;;5019847;28;20137;-65
2021/06/12 10:23:45;;;;;;;12.63;1.65;;;23.70;71.40;;;;;;5020871;28;20080;-65
2021/06/12 10:26:13;;;;;;;6.47;1.38;;;23.60;69.80;;;;;;5021474;28;20037;-65
2021/06/12 10:28:39;;;;;;;5.68;1.52;;;23.70;69.90;;;;;;5020969;28;20567;-65
2021/06/12 10:31:11;;;;;;;4.68;1.08;;;24.00;70.80;;;;;;5025016;28;20117;-65
2021/06/12 10:33:43;;;;;;;8.98;2.25;;;24.10;69.30;;;;;;5023495;28;20406;-65
2021/06/12 10:36:25;;;;;;;4.78;1.30;;;24.10;69.80;;;;;;5023164;28;20384;-65
2021/06/12 10:38:52;;;;;;;6.30;1.58;;;24.10;70.30;;;;;;5024976;28;20041;-65
2021/06/12 10:41:19;;;;;;;5.55;1.85;;;23.90;70.00;;;;;;5024234;28;20435;-65
2021/06/12 10:43:45;;;;;;;6.05;1.42;;;23.80;67.70;;;;;;5025395;28;20045;-65
2021/06/12 10:46:14;;;;;;;5.70;1.30;;;23.70;67.80;;;;;;5025858;28;20037;-65
2021/06/12 10:49:00;;;;;;;5.28;1.83;;;23.80;68.90;;;;;;5025739;28;20431;-65
2021/06/12 10:51:26;;;;;;;4.80;1.23;;;23.80;68.80;;;;;;5025980;28;20053;-65
2021/06/12 10:54:20;;;;;;;7.45;1.30;;;24.00;69.90;;;;;;5023234;28;20048;-65
2021/06/12 10:57:21;;;;;;;6.70;1.30;;;24.00;69.20;;;;;;5025326;28;21354;-65
2021/06/12 10:59:51;;;;;;;9.85;1.48;;;23.90;70.60;;;;;;4945018;28;20042;-65
2021/06/12 11:05:28;;;;;;;4.57;1.17;;;24.10;68.50;;;;;;5012112;28;20669;-65
2021/06/12 11:08:15;;;;;;;11.57;2.38;;;24.30;67.50;;;;;;5024326;28;20116;-65
2021/06/12 11:10:40;;;;;;;4.47;1.20;;;24.40;66.90;;;;;;5023454;28;20103;-65
2021/06/12 11:13:20;;;;;;;3.67;1.27;;;24.50;66.90;;;;;;5024919;28;20124;-65
2021/06/12 11:15:46;;;;;;;6.68;1.40;;;24.20;64.00;;;;;;5023708;28;20040;-65
2021/06/12 11:18:16;;;;;;;6.40;1.30;;;23.80;67.10;;;;;;5025423;28;20046;-65
2021/06/12 11:21:03;;;;;;;4.43;1.10;;;23.60;66.30;;;;;;5025847;28;20041;-65
2021/06/12 11:24:01;;;;;;;5.32;1.80;;;23.50;67.30;;;;;;5022913;28;20045;-65
2021/06/12 11:26:27;;;;;;;6.05;1.52;;;23.30;66.50;;;;;;5021409;28;20056;-65
2021/06/12 11:29:10;;;;;;;4.70;1.35;;;23.10;67.80;;;;;;5022941;28;20045;-65
2021/06/12 11:31:37;;;;;;;5.82;1.52;;;22.90;67.90;;;;;;5024220;28;20041;-65
2021/06/12 11:34:25;;;;;;;3.92;1.20;;;22.80;70.10;;;;;;5023772;28;20041;-65
2021/06/12 11:37:29;;;;;;;5.63;1.15;;;22.80;69.20;;;;;;5024208;28;20045;-65
2021/06/12 11:39:57;;;;;;;4.55;1.52;;;22.80;69.70;;;;;;5022116;28;20141;-65
2021/06/12 11:42:38;;;;;;;7.20;1.10;;;23.00;71.70;;;;;;5023428;28;20038;-65
2021/06/12 11:45:14;;;;;;;4.10;0.73;;;23.40;71.60;;;;;;5023401;28;20050;-64
2021/06/12 11:47:40;;;;;;;4.97;0.90;;;23.70;70.90;;;;;;5024227;28;20086;-65
2021/06/12 11:50:06;;;;;;;4.45;0.90;;;23.60;67.50;;;;;;5024177;28;20873;-65
2021/06/12 11:52:36;;;;;;;5.60;0.98;;;23.60;65.70;;;;;;5023616;28;20443;-65
2021/06/12 11:55:16;;;;;;;6.00;0.93;;;23.60;66.80;;;;;;5021747;28;20045;-65
2021/06/12 11:57:46;;;;;;;6.63;0.70;;;23.50;66.90;;;;;;5024197;28;20048;-65
2021/06/12 12:00:27;;;;;;;6.63;0.90;;;23.40;62.80;;;;;;5024151;28;20140;-65
2021/06/12 12:03:19;;;;;;;4.30;0.80;;;23.20;64.30;;;;;;5024760;28;20087;-65
2021/06/12 12:05:47;;;;;;;3.17;1.00;;;23.10;65.00;;;;;;5019092;28;20165;-65
2021/06/12 12:08:15;;;;;;;7.13;1.70;;;23.00;67.00;;;;;;5022839;28;20108;-65
2021/06/12 12:10:44;;;;;;;5.10;0.77;;;22.90;64.80;;;;;;5023712;28;20095;-65
2021/06/12 12:13:35;;;;;;;5.43;0.85;;;22.80;64.90;;;;;;5023837;28;20604;-65
2021/06/12 12:16:02;;;;;;;5.25;1.10;;;22.80;67.10;;;;;;5022662;28;20115;-65
2021/06/12 12:18:29;;;;;;;6.00;0.80;;;22.70;64.90;;;;;;5024723;28;20091;-65
2021/06/12 12:20:57;;;;;;;3.60;0.85;;;22.60;67.20;;;;;;5023939;28;21069;-65
2021/06/12 12:23:30;;;;;;;4.78;0.68;;;22.80;67.50;;;;;;5022631;28;20036;-65
2021/06/12 12:26:08;;;;;;;7.90;0.75;;;23.00;65.00;;;;;;5023508;28;20041;-65
2021/06/12 12:29:02;;;;;;;9.75;0.85;;;23.10;63.70;;;;;;5022464;28;20553;-65
2021/06/12 12:31:30;;;;;;;4.53;0.60;;;23.20;66.00;;;;;;5018160;28;20523;-65
2021/06/12 12:33:58;;;;;;;5.85;0.93;;;23.50;64.40;;;;;;5021621;28;20124;-65
2021/06/12 12:36:25;;;;;;;6.65;0.70;;;23.60;66.00;;;;;;5021809;28;20091;-65
2021/06/12 12:38:57;;;;;;;6.60;1.70;;;23.40;64.60;;;;;;5024202;28;20107;-65
2021/06/12 12:41:24;;;;;;;4.93;1.23;;;23.40;65.70;;;;;;5022111;28;20547;-66
2021/06/12 12:44:16;;;;;;;5.47;1.10;;;23.60;64.50;;;;;;5022053;28;20087;-65
2021/06/12 12:46:45;;;;;;;6.78;1.42;;;23.40;65.30;;;;;;5023063;28;20034;-65
2021/06/12 12:49:17;;;;;;;7.20;0.93;;;23.20;66.10;;;;;;5022153;28;20034;-66
2021/06/12 12:52:04;;;;;;;5.30;1.10;;;23.20;63.70;;;;;;5021559;28;20048;-66
2021/06/12 12:54:32;;;;;;;7.18;1.35;;;23.20;63.90;;;;;;5020443;28;20046;-65
2021/06/12 12:57:08;;;;;;;8.75;1.55;;;23.10;64.90;;;;;;5020642;28;20041;-66
2021/06/12 12:59:42;;;;;;;11.55;1.33;;;22.80;63.70;;;;;;5022811;28;21193;-66
2021/06/12 13:02:09;;;;;;;8.25;0.90;;;22.60;64.30;;;;;;5020288;28;20124;-65
2021/06/12 13:04:36;;;;;;;10.35;1.00;;;22.40;66.10;;;;;;5021301;28;20037;-64
2021/06/12 13:07:18;;;;;;;9.23;1.27;;;22.20;66.90;;;;;;5022776;28;20045;-65
2021/06/12 13:10:04;;;;;;;7.80;0.95;;;22.10;67.90;;;;;;5022526;28;20045;-66
2021/06/12 13:12:30;;;;;;;12.85;1.48;;;21.80;67.90;;;;;;5022688;28;20072;-66
2021/06/12 13:15:01;;;;;;;14.40;1.55;;;21.70;69.90;;;;;;5023390;28;20791;-67
2021/06/12 13:17:29;;;;;;;9.60;0.93;;;21.60;70.10;;;;;;5022829;28;20030;-65
2021/06/12 13:20:02;;;;;;;7.10;0.90;;;21.60;71.90;;;;;;5021474;28;20660;-65
2021/06/12 13:22:45;;;;;;;6.82;0.82;;;21.50;70.00;;;;;;5022689;28;20061;-66